Time;durP1;ratioP1;P1;durP2;ratioP2;P2;SDS_P1;SDS_P2;PMS_P1;PMS_P2;Temp;Humidity;BMP_temperature;BMP_pressure;BME280_temperature;BME280_humidity;BME280_pressure;Samples;Min_cycle;Max_cycle;Signal;HPM_P1;HPM_P2
2024/03/29 00:01:15;;;;;;;4.00;1.80;;;;;;;10.66;61.42;98500.99;131008;1257;108483;-83
2024/03/29 00:04:30;;;;;;;3.40;2.20;;;;;;;10.64;62.19;98504.21;131070;1259;108415;-84
2024/03/29 00:07:36;;;;;;;3.60;1.90;;;;;;;10.64;61.38;98514.48;131019;1259;106856;-83
2024/03/29 00:10:41;;;;;;;2.90;1.80;;;;;;;10.61;61.53;98507.41;130798;1258;108880;-83
2024/03/29 00:13:46;;;;;;;3.20;1.60;;;;;;;10.60;61.17;98511.71;130884;1258;108077;-83
2024/03/29 00:16:52;;;;;;;2.50;1.50;;;;;;;10.58;61.46;98511.16;130941;1258;106930;-83
2024/03/29 00:19:57;;;;;;;2.70;1.50;;;;;;;10.59;61.09;98516.61;130958;1256;108663;-82
2024/03/29 00:23:02;;;;;;;3.40;1.90;;;;;;;10.58;61.09;98522.58;130914;1260;106744;-82
2024/03/29 00:26:08;;;;;;;3.50;1.60;;;;;;;10.55;61.11;98526.69;130988;1259;107649;-82
2024/03/29 00:29:13;;;;;;;2.30;1.60;;;;;;;10.53;61.23;98534.67;131119;1261;107767;-82
2024/03/29 00:32:19;;;;;;;2.50;1.60;;;;;;;10.52;61.47;98533.98;131075;1256;108061;-82
2024/03/29 00:35:24;;;;;;;2.00;1.50;;;;;;;10.52;60.78;98540.38;130940;1256;108638;-82
2024/03/29 00:38:29;;;;;;;2.50;1.40;;;;;;;10.52;61.21;98541.45;130844;1258;106355;-82
2024/03/29 00:41:34;;;;;;;2.30;1.60;;;;;;;10.52;61.34;98547.67;130924;1256;106802;-82
2024/03/29 00:44:39;;;;;;;;;;;;;;;10.53;61.08;98556.02;130871;1259;108130;-82
2024/03/29 00:47:43;;;;;;;;;;;;;;;10.52;60.70;98561.98;130918;1256;107619;-82
2024/03/29 00:50:47;;;;;;;;;;;;;;;10.52;61.14;98563.96;131046;1256;108516;-82
2024/03/29 00:53:52;;;;;;;;;;;;;;;10.54;61.42;98569.52;131005;1259;107494;-82
2024/03/29 00:56:56;;;;;;;;;;;;;;;10.56;61.08;98576.67;130785;1260;107479;-82
2024/03/29 00:59:59;;;;;;;;;;;;;;;10.59;61.10;98583.56;130925;1258;107738;-82
2024/03/29 01:03:04;;;;;;;;;;;;;;;10.60;60.76;98589.35;130880;1258;107636;-83
2024/03/29 01:06:08;;;;;;;;;;;;;;;10.60;60.86;98591.69;130838;1258;106716;-82
2024/03/29 01:09:12;;;;;;;;;;;;;;;10.60;60.63;98600.09;130915;1257;108553;-82
2024/03/29 01:12:15;;;;;;;;;;;;;;;10.60;61.04;98605.55;130926;1257;107819;-82
2024/03/29 01:15:19;;;;;;;;;;;;;;;10.61;61.21;98615.04;130971;1257;108679;-82
2024/03/29 01:18:23;;;;;;;;;;;;;;;10.61;61.17;98618.90;130866;1257;107752;-82
2024/03/29 01:21:27;;;;;;;;;;;;;;;10.61;60.83;98628.13;130839;1254;108654;-82
2024/03/29 01:24:30;;;;;;;;;;;;;;;10.61;60.89;98634.25;131052;1257;107421;-82
2024/03/29 01:27:34;;;;;;;;;;;;;;;10.59;61.41;98636.98;131006;1254;108717;-82
2024/03/29 01:30:38;;;;;;;;;;;;;;;10.57;61.27;98632.20;131052;1257;108764;-83
2024/03/29 01:33:42;;;;;;;;;;;;;;;10.56;61.22;98638.71;130948;1254;107482;-83
2024/03/29 01:36:45;;;;;;;;;;;;;;;10.58;61.35;98657.39;130964;1257;107860;-82
2024/03/29 01:39:49;;;;;;;;;;;;;;;10.58;61.19;98668.77;131079;1270;106556;-82
2024/03/29 01:42:55;;;;;;;;;;;;;;;10.56;61.37;98675.68;130903;1257;106415;-82
2024/03/29 01:45:59;;;;;;;;;;;;;;;10.56;61.48;98680.55;130937;1259;106874;-82
2024/03/29 01:49:06;;;;;;;;;;;;;;;10.55;61.29;98689.14;130991;1257;105647;-84
2024/03/29 01:52:09;;;;;;;;;;;;;;;10.52;61.10;98694.64;131067;1253;106567;-84
2024/03/29 01:55:14;;;;;;;;;;;;;;;10.50;61.32;98703.33;131077;1256;106619;-83
2024/03/29 01:58:18;;;;;;;;;;;;;;;10.48;61.06;98719.26;131009;1257;108552;-82
2024/03/29 02:01:22;;;;;;;;;;;;;;;10.45;61.25;98733.48;131100;1256;107741;-82
2024/03/29 02:04:27;;;;;;;;;;;;;;;10.41;61.15;98738.22;131092;1254;106598;-82
2024/03/29 02:07:31;;;;;;;;;;;;;;;10.38;61.15;98749.31;131125;1254;108030;-83
2024/03/29 02:10:35;;;;;;;;;;;;;;;10.34;60.78;98761.86;130993;1257;108128;-83
2024/03/29 02:13:40;;;;;;;;;;;;;;;10.31;60.73;98766.37;131084;1257;106970;-83
2024/03/29 02:16:44;;;;;;;;;;;;;;;10.26;60.48;98769.27;130922;1257;108552;-82
2024/03/29 02:19:47;;;;;;;;;;;;;;;10.21;60.22;98777.27;131079;1253;107142;-83
2024/03/29 02:22:54;;;;;;;;;;;;;;;10.18;60.27;98784.60;131006;1258;107410;-83
2024/03/29 02:25:59;;;;;;;;;;;;;;;10.14;60.46;98790.20;130975;1255;106568;-83
2024/03/29 02:29:03;;;;;;;;;;;;;;;10.11;60.23;98795.19;130977;1252;107846;-83
2024/03/29 02:32:07;;;;;;;;;;;;;;;10.05;60.04;98803.39;130983;1254;108570;-83
2024/03/29 02:35:11;;;;;;;;;;;;;;;9.99;59.96;98811.36;130894;1254;107627;-83
2024/03/29 02:38:15;;;;;;;;;;;;;;;9.95;59.59;98814.94;130996;1257;107706;-82
2024/03/29 02:41:18;;;;;;;;;;;;;;;9.90;59.33;98820.66;130902;1256;106699;-82
2024/03/29 02:44:22;;;;;;;;;;;;;;;9.82;59.43;98821.29;130861;1254;108736;-82
2024/03/29 02:47:26;;;;;;;;;;;;;;;9.77;59.40;98826.64;130970;1254;108779;-82
2024/03/29 02:50:30;;;;;;;;;;;;;;;9.73;59.99;98833.54;131054;1257;107716;-83
2024/03/29 02:53:33;;;;;;;;;;;;;;;9.68;59.60;98838.30;131028;1254;106543;-83
2024/03/29 02:56:37;;;;;;;;;;;;;;;9.63;59.78;98846.01;131086;1257;107735;-83
2024/03/29 02:59:42;;;;;;;;;;;;;;;9.59;59.80;98851.48;131102;1256;109188;-82
2024/03/29 03:02:46;;;;;;;;;;;;;;;9.55;59.69;98854.61;131078;1253;108690;-82
2024/03/29 03:05:51;;;;;;;;;;;;;;;9.52;59.86;98856.73;131196;1259;107426;-82
2024/03/29 03:12:17;;;;;;;;;;;;;;;9.46;60.04;98865.69;131066;1255;106514;-82
2024/03/29 03:15:21;;;;;;;;;;;;;;;9.43;60.15;98869.01;131371;1253;108837;-82
2024/03/29 03:18:25;;;;;;;;;;;;;;;9.40;60.17;98875.11;131113;1257;106512;-82
2024/03/29 03:21:28;;;;;;;;;;;;;;;9.38;60.14;98877.56;131129;1254;108659;-82
2024/03/29 03:24:32;;;;;;;;;;;;;;;9.33;60.15;98891.64;130870;1255;106940;-82
2024/03/29 03:27:36;;;;;;;;;;;;;;;9.27;60.18;98896.95;131111;1257;106568;-83
2024/03/29 03:30:41;;;;;;;;;;;;;;;9.22;60.51;98896.86;130957;1257;107722;-82
2024/03/29 03:33:45;;;;;;;;;;;;;;;9.16;60.49;98893.96;130937;1255;106499;-82
2024/03/29 03:36:51;;;;;;;;;;;;;;;9.12;60.49;98894.36;131071;1257;108687;-82
2024/03/29 03:39:55;;;;;;;;;;;;;;;9.09;60.57;98896.78;131081;1258;108814;-82
2024/03/29 03:42:59;;;;;;;;;;;;;;;9.03;60.64;98895.45;131041;1257;108965;-82
2024/03/29 03:46:03;;;;;;;;;;;;;;;8.99;60.85;98891.98;131199;1253;108820;-82
2024/03/29 03:49:06;;;;;;;;;;;;;;;8.94;60.87;98892.35;131246;1253;106495;-82
2024/03/29 03:52:10;;;;;;;;;;;;;;;8.90;61.02;98911.84;131150;1255;106590;-82
2024/03/29 03:55:15;;;;;;;;;;;;;;;8.86;61.06;98916.53;131030;1257;108720;-82
2024/03/29 03:58:19;;;;;;;;;;;;;;;8.83;61.16;98917.63;131187;1252;106716;-82
2024/03/29 04:01:22;;;;;;;;;;;;;;;8.78;61.21;98922.27;131128;1256;108604;-82
2024/03/29 04:04:26;;;;;;;;;;;;;;;8.73;61.32;98939.05;131208;1253;107759;-82
2024/03/29 04:07:30;;;;;;;;;;;;;;;8.70;61.48;98945.52;130965;1253;107576;-82
2024/03/29 04:10:38;;;;;;;;;;;;;;;8.65;61.53;98953.98;131031;1257;109406;-82
2024/03/29 04:13:43;;;;;;;;;;;;;;;8.61;61.52;98966.98;131221;1253;106947;-82
2024/03/29 04:16:48;;;;;;;;;;;;;;;8.57;61.80;98962.11;131224;1253;107772;-82
2024/03/29 04:19:52;;;;;;;;;;;;;;;8.56;61.76;98968.33;131194;1252;108016;-82
2024/03/29 04:22:56;;;;;;;;;;;;;;;8.52;61.93;98970.55;131182;1253;107864;-82
2024/03/29 04:26:00;;;;;;;;;;;;;;;8.48;61.95;98977.33;131074;1253;106954;-82
2024/03/29 04:29:04;;;;;;;;;;;;;;;8.46;62.08;98980.02;131016;1253;107686;-82
2024/03/29 04:32:08;;;;;;;;;;;;;;;8.43;62.09;98989.02;130941;1254;106976;-84
2024/03/29 04:35:12;;;;;;;;;;;;;;;8.41;62.08;98991.54;130794;1254;108539;-83
2024/03/29 04:38:16;;;;;;;;;;;;;;;8.40;62.11;98996.98;130880;1258;107058;-81
2024/03/29 04:41:20;;;;;;;;;;;;;;;8.37;62.11;98997.38;130919;1257;108334;-82
2024/03/29 04:44:28;;;;;;;;;;;;;;;8.33;62.33;99000.60;130881;1257;107932;-82
2024/03/29 04:47:31;;;;;;;;;;;;;;;8.30;62.27;99001.34;130835;1253;181097;-83
2024/03/29 04:50:35;;;;;;;;;;;;;;;8.29;62.48;99002.77;131186;1253;107662;-82
2024/03/29 04:53:39;;;;;;;;;;;;;;;8.30;62.54;99001.27;131134;1256;108441;-83
2024/03/29 04:56:43;;;;;;;;;;;;;;;8.35;62.74;99001.46;130806;1257;108735;-85
2024/03/29 04:59:47;;;;;;;;;;;;;;;8.45;62.75;99003.21;130915;1257;107713;-83
2024/03/29 05:02:51;;;;;;;;;;;;;;;8.55;62.68;98995.60;131236;1258;107709;-83
2024/03/29 05:05:55;;;;;;;;;;;;;;;8.65;62.74;98990.73;131035;1257;108832;-83
2024/03/29 05:08:59;;;;;;;;;;;;;;;8.74;62.66;98994.50;130729;1253;108397;-83
2024/03/29 05:12:04;;;;;;;;;;;;;;;8.81;62.77;98988.88;131382;1259;108492;-83
2024/03/29 05:15:08;;;;;;;;;;;;;;;8.90;62.62;98992.70;132807;1253;109003;-83
2024/03/29 05:18:12;;;;;;;;;;;;;;;8.98;62.69;98996.06;131352;1253;108443;-83
2024/03/29 05:21:16;;;;;;;;;;;;;;;9.03;62.65;98999.42;131192;1253;108746;-83
2024/03/29 05:24:21;;;;;;;;;;;;;;;9.07;62.65;99003.77;131190;1257;107866;-83
2024/03/29 05:27:25;;;;;;;;;;;;;;;9.11;62.68;99004.73;130856;1259;108721;-83
2024/03/29 05:30:28;;;;;;;;;;;;;;;9.15;62.79;99008.55;130793;1257;107908;-83
2024/03/29 05:33:32;;;;;;;;;;;;;;;9.19;63.13;99014.10;130674;1253;108583;-83
2024/03/29 05:36:36;;;;;;;;;;;;;;;9.23;62.87;99014.19;130764;1257;108263;-83
2024/03/29 05:39:40;;;;;;;;;;;;;;;9.25;63.04;99013.05;130827;1256;106313;-83
2024/03/29 05:42:44;;;;;;;;;;;;;;;9.29;63.08;99018.04;130853;1257;106537;-83
2024/03/29 05:45:53;;;;;;;;;;;;;;;9.33;63.14;99019.73;130950;1259;106301;-84
2024/03/29 05:48:56;;;;;;;;;;;;;;;9.38;62.94;99025.34;130771;1257;107518;-83
2024/03/29 05:52:00;;;;;;;;;;;;;;;9.42;63.08;99036.56;130746;1258;107944;-83
2024/03/29 05:55:06;;;;;;;;;;;;;;;9.48;63.33;99044.39;130689;1257;108666;-84
2024/03/29 05:58:10;;;;;;;;;;;;;;;9.51;63.45;99050.16;130917;1253;107825;-85
2024/03/29 06:01:14;;;;;;;;;;;;;;;9.56;63.27;99058.65;130937;1257;107977;-84
2024/03/29 06:04:21;;;;;;;;;;;;;;;9.61;63.15;99065.71;130882;1257;109119;-84
2024/03/29 06:07:25;;;;;;;;;;;;;;;9.67;63.43;99058.86;131041;1257;106519;-84
2024/03/29 06:10:28;;;;;;;;;;;;;;;9.70;63.40;99061.70;131114;1258;108100;-85
2024/03/29 06:20:23;;;;;;;;;;;;;;;9.80;63.04;99082.88;130559;1262;107728;-81
2024/03/29 06:23:27;;;;;;;;;;;;;;;9.81;63.56;99085.03;130924;1257;107509;-82
2024/03/29 06:26:31;;;;;;;;;;;;;;;9.84;63.48;99087.40;130899;1254;108850;-81
2024/03/29 06:29:34;;;;;;;;;;;;;;;9.89;63.37;99101.92;130694;1258;106696;-80
2024/03/29 06:32:38;;;;;;;;;;;;;;;9.94;63.36;99108.58;130687;1257;107742;-81
2024/03/29 06:35:44;;;;;;;;;;;;;;;10.00;63.32;99113.12;130681;1257;108897;-81
2024/03/29 06:38:47;;;;;;;;;;;;;;;10.07;63.25;99110.16;130881;1256;107873;-82
2024/03/29 06:41:51;;;;;;;;;;;;;;;10.14;63.33;99109.88;130877;1254;108614;-81
2024/03/29 06:44:55;;;;;;;;;;;;;;;10.20;62.98;99110.44;130677;1258;106942;-81
2024/03/29 06:48:01;;;;;;;;;;;;;;;10.27;62.86;99103.57;130984;1253;106477;-82
2024/03/29 06:51:05;;;;;;;;;;;;;;;10.33;62.56;99101.65;130712;1257;108570;-81
2024/03/29 06:54:09;;;;;;;;;;;;;;;10.40;62.52;99108.52;130748;1259;108793;-81
2024/03/29 06:57:17;;;;;;;;;;;;;;;10.45;62.55;99110.09;130675;1257;106466;-81
2024/03/29 07:00:21;;;;;;;;;;;;;;;10.51;62.73;99108.64;130700;1258;107018;-81
2024/03/29 07:03:25;;;;;;;;;;;;;;;10.58;62.53;99106.40;130916;1257;108772;-83
2024/03/29 07:06:29;;;;;;;;;;;;;;;10.67;62.90;99101.77;130740;1257;106943;-82
2024/03/29 07:09:33;;;;;;;;;;;;;;;10.73;62.24;99095.38;130751;1257;107820;-81
2024/03/29 07:12:36;;;;;;;;;;;;;;;10.79;62.60;99099.13;130662;1257;107696;-84
2024/03/29 07:15:40;;;;;;;;;;;;;;;10.86;62.48;99103.25;130707;1256;107099;-81
2024/03/29 07:18:45;;;;;;;;;;;;;;;10.92;62.74;99107.98;130695;1254;106463;-81
2024/03/29 07:21:50;;;;;;;;;;;;;;;10.99;62.62;99102.98;130644;1254;106544;-81
2024/03/29 07:24:54;;;;;;;;;;;;;;;11.04;62.34;99096.64;130715;1257;107802;-79
2024/03/29 07:27:58;;;;;;;;;;;;;;;11.10;62.23;99103.29;130799;1259;108547;-79
2024/03/29 07:31:07;;;;;;;;;;;;;;;11.16;62.20;99100.17;130772;1254;107914;-83
2024/03/29 07:34:12;;;;;;;;;;;;;;;11.22;62.12;99113.93;131392;1254;108772;-81
2024/03/29 07:37:18;;;;;;;;;;;;;;;11.27;61.99;99120.58;131776;1254;108646;-82
2024/03/29 07:40:21;;;;;;;;;;;;;;;11.32;61.83;99120.38;131196;1257;108036;-80
2024/03/29 07:43:25;;;;;;;;;;;;;;;11.37;62.14;99124.33;131005;1257;107621;-83
2024/03/29 07:46:30;;;;;;;;;;;;;;;11.44;62.01;99124.08;131050;1252;108545;-81
2024/03/29 07:49:34;;;;;;;;;;;;;;;11.51;62.01;99119.84;130869;1259;107218;-83
2024/03/29 07:52:38;;;;;;;;;;;;;;;11.57;61.80;99119.38;130774;1253;108525;-83
2024/03/29 07:55:42;;;;;;;;;;;;;;;11.64;61.68;99120.00;131001;1258;107823;-83
2024/03/29 07:58:45;;;;;;;;;;;;;;;11.72;61.78;99121.85;130908;1259;107436;-82
2024/03/29 08:01:50;;;;;;;;;;;;;;;11.81;61.62;99121.36;130864;1259;107556;-81
2024/03/29 08:04:54;;;;;;;;;;;;;;;11.89;61.67;99126.81;130654;1259;108734;-82
2024/03/29 08:07:58;;;;;;;;;;;;;;;11.96;61.31;99124.70;130684;1259;106608;-83
2024/03/29 08:11:02;;;;;;;;;;;;;;;12.01;61.10;99129.39;130869;1256;105502;-85
2024/03/29 08:14:06;;;;;;;;;;;;;;;12.07;60.71;99127.27;130824;1257;107105;-85
2024/03/29 08:17:10;;;;;;;;;;;;;;;12.09;60.01;99130.54;130884;1254;107682;-83
2024/03/29 08:20:14;;;;;;;;;;;;;;;12.15;60.48;99135.54;130913;1259;108682;-82
2024/03/29 08:23:17;;;;;;;;;;;;;;;12.22;60.20;99138.11;130908;1253;106499;-82
2024/03/29 08:26:21;;;;;;;;;;;;;;;12.25;59.84;99145.30;130858;1257;108133;-82
2024/03/29 08:29:25;;;;;;;;;;;;;;;12.28;59.71;99149.07;130863;1259;106242;-80
2024/03/29 08:32:29;;;;;;;;;;;;;;;12.32;59.43;99155.41;130820;1259;107732;-80
2024/03/29 08:35:34;;;;;;;;;;;;;;;12.39;59.67;99162.14;130917;1258;108517;-80
2024/03/29 08:38:41;;;;;;;;;;;;;;;12.45;59.29;99157.01;130908;1259;106709;-80
2024/03/29 08:41:45;;;;;;;;;;;;;;;12.51;59.24;99159.98;130993;1259;108813;-81
2024/03/29 08:44:49;;;;;;;;;;;;;;;12.60;59.47;99157.55;130953;1256;107829;-80
2024/03/29 08:47:53;;;;;;;;;;;;;;;12.74;59.60;99156.51;130892;1259;106849;-83
2024/03/29 08:50:56;;;;;;;;;;;;;;;12.85;59.52;99155.52;130761;1259;108408;-83
2024/03/29 08:54:04;;;;;;;;;;;;;;;12.94;59.43;99157.15;130787;1259;108685;-84
2024/03/29 08:57:08;;;;;;;;;;;;;;;13.05;59.34;99163.29;130780;1259;108668;-80
2024/03/29 09:00:14;;;;;;;;;;;;;;;13.17;59.01;99160.34;130681;1258;106577;-81
2024/03/29 09:03:17;;;;;;;;;;;;;;;13.27;58.79;99157.45;130715;1259;108556;-81
2024/03/29 09:06:21;;;;;;;;;;;;;;;13.37;58.77;99156.73;130831;1258;107622;-85
2024/03/29 09:09:25;;;;;;;;;;;;;;;13.45;58.58;99158.55;130879;1253;108331;-80
2024/03/29 09:12:29;;;;;;;;;;;;;;;13.53;58.08;99160.53;131065;1259;107698;-80
2024/03/29 09:15:33;;;;;;;;;;;;;;;13.60;58.09;99170.87;130908;1257;109446;-80
2024/03/29 09:18:37;;;;;;;;;;;;;;;13.68;58.13;99177.17;130805;1254;105655;-80
2024/03/29 09:21:41;;;;;;;;;;;;;;;13.74;58.35;99179.39;130800;1258;107659;-80
2024/03/29 09:24:44;;;;;;;;;;;;;;;13.83;57.82;99175.70;130776;1259;107644;-80
2024/03/29 09:27:48;;;;;;;;;;;;;;;13.86;57.74;99169.41;130839;1258;108537;-80
2024/03/29 09:30:58;;;;;;;;;;;;;;;13.89;57.10;99174.04;130870;1257;106219;-80
2024/03/29 09:34:02;;;;;;;;;;;;;;;13.93;56.56;99165.17;130697;1258;108406;-80
2024/03/29 09:37:06;;;;;;;;;;;;;;;13.96;56.71;99174.63;130774;1258;106815;-80
2024/03/29 09:40:11;;;;;;;;;;;;;;;13.97;56.33;99180.70;130854;1259;107454;-80
2024/03/29 09:43:15;;;;;;;;;;;;;;;14.02;56.64;99174.20;130762;1259;107553;-80
2024/03/29 09:46:19;;;;;;;;;;;;;;;14.10;57.02;99177.77;130673;1257;106084;-80
2024/03/29 09:49:23;;;;;;;;;;;;;;;14.19;57.00;99178.24;130673;1256;107319;-79
2024/03/29 09:52:27;;;;;;;;;;;;;;;14.26;56.93;99172.64;130688;1256;107296;-80
2024/03/29 09:55:31;;;;;;;;;;;;;;;14.33;56.60;99171.75;130746;1259;108755;-80
2024/03/29 09:58:36;;;;;;;;;;;;;;;14.37;56.10;99172.04;130633;1259;107359;-79
2024/03/29 10:01:40;;;;;;;;;;;;;;;14.41;55.95;99165.86;130684;1259;106683;-79
2024/03/29 10:04:46;;;;;;;;;;;;;;;14.44;55.66;99158.84;130616;1259;107510;-80
2024/03/29 10:07:50;;;;;;;;;;;;;;;14.49;55.79;99153.86;130749;1259;106850;-80
2024/03/29 10:10:54;;;;;;;;;;;;;;;14.55;54.67;99163.77;130980;1259;108846;-79
2024/03/29 10:13:58;;;;;;;;;;;;;;;14.56;54.89;99178.02;130842;1259;107213;-79
2024/03/29 10:17:02;;;;;;;;;;;;;;;14.56;54.63;99177.65;130849;1259;108799;-79
2024/03/29 10:20:07;;;;;;;;;;;;;;;14.60;55.07;99176.27;130824;1259;108738;-79
2024/03/29 10:23:11;;;;;;;;;;;;;;;14.65;54.50;99179.45;130982;1258;108823;-81
2024/03/29 10:26:16;;;;;;;;;;;;;;;14.68;53.98;99184.21;130737;1254;109296;-82
2024/03/29 10:29:19;;;;;;;;;;;;;;;14.69;53.49;99182.19;130837;1254;108488;-81
2024/03/29 10:32:24;;;;;;;;;;;;;;;14.73;53.74;99178.22;130623;1259;108808;-79
2024/03/29 10:35:28;;;;;;;;;;;;;;;14.77;53.29;99179.46;130653;1259;108647;-81
2024/03/29 10:38:31;;;;;;;;;;;;;;;14.80;53.30;99173.88;130938;1259;107585;-81
2024/03/29 10:41:35;;;;;;;;;;;;;;;14.86;52.88;99178.14;130810;1258;108845;-81
2024/03/29 10:44:41;;;;;;;;;;;;;;;14.91;52.66;99181.57;130707;1253;107156;-81
2024/03/29 10:47:46;;;;;;;;;;;;;;;14.97;53.22;99186.30;130789;1256;106356;-81
2024/03/29 10:50:51;;;;;;;;;;;;;;;15.05;53.07;99180.77;130641;1257;108465;-81
2024/03/29 10:53:57;;;;;;;;;;;;;;;15.12;53.08;99168.98;130569;1256;107062;-81
2024/03/29 10:57:07;;;;;;;;;;;;;;;15.17;53.03;99172.48;130869;1253;106572;-81
2024/03/29 11:00:14;;;;;;;;;;;;;;;15.23;53.17;99164.65;130857;1259;108614;-81
2024/03/29 11:03:20;;;;;;;;;;;;;;;15.26;52.51;99157.73;130890;1256;107754;-81
2024/03/29 11:06:27;;;;;;;;;;;;;;;15.29;52.80;99152.30;130781;1259;106574;-80
2024/03/29 11:09:32;;;;;;;;;;;;;;;15.33;52.71;99158.58;130857;1256;106348;-81
2024/03/29 11:12:40;;;;;;;;;;;;;;;15.38;51.90;99159.99;130849;1259;108472;-81
2024/03/29 11:15:45;;;;;;;;;;;;;;;15.41;51.68;99144.46;130763;1257;106541;-81
2024/03/29 11:18:49;;;;;;;;;;;;;;;15.43;51.32;99142.23;130711;1255;107842;-81
2024/03/29 11:21:54;;;;;;;;;;;;;;;15.45;50.88;99134.03;130730;1259;107750;-81
2024/03/29 11:25:00;;;;;;;;;;;;;;;15.42;50.39;99139.38;130772;1259;107426;-81
2024/03/29 11:28:08;;;;;;;;;;;;;;;15.41;50.80;99148.10;130702;1256;108440;-81
2024/03/29 11:31:14;;;;;;;;;;;;;;;15.44;50.83;99150.37;130865;1257;108713;-81
2024/03/29 11:34:20;;;;;;;;;;;;;;;15.48;51.07;99141.17;130688;1260;108734;-80
2024/03/29 11:37:30;;;;;;;;;;;;;;;15.54;50.77;99157.33;130672;1258;108685;-81
2024/03/29 11:40:34;;;;;;;;;;;;;;;15.59;50.80;99167.20;130815;1266;107590;-81
2024/03/29 11:43:38;;;;;;;;;;;;;;;15.64;50.45;99159.23;130698;1259;106893;-81
2024/03/29 11:46:43;;;;;;;;;;;;;;;15.66;50.34;99151.52;130649;1259;107551;-81
2024/03/29 11:49:56;;;;;;;;;;;;;;;15.73;50.44;99153.71;130662;1259;108797;-81
2024/03/29 11:53:02;;;;;;;;;;;;;;;15.80;49.57;99147.65;130803;1259;107720;-81
2024/03/29 11:56:06;;;;;;;;;;;;;;;15.85;49.34;99142.20;130738;1257;108912;-81
2024/03/29 11:59:10;;;;;;;;;;;;;;;15.88;48.97;99149.64;130793;1261;106858;-81
2024/03/29 12:02:14;;;;;;;;;;;;;;;15.92;49.37;99149.83;130668;1259;107656;-81
2024/03/29 12:05:18;;;;;;;;;;;;;;;15.94;49.02;99146.63;130800;1259;108376;-81
2024/03/29 12:08:23;;;;;;;;;;;;;;;15.97;48.84;99154.43;130601;1259;107672;-81
2024/03/29 12:11:29;;;;;;;;;;;;;;;15.99;48.22;99153.84;130754;1260;107059;-81
2024/03/29 12:14:35;;;;;;;;;;;;;;;15.99;47.27;99145.27;130684;1259;108755;-81
2024/03/29 12:17:39;;;;;;;;;;;;;;;16.00;48.21;99152.14;130677;1260;106536;-81
2024/03/29 12:20:46;;;;;;;;;;;;;;;16.02;47.70;99159.38;130601;1259;107529;-81
2024/03/29 12:23:50;;;;;;;;;;;;;;;16.03;47.71;99165.41;130651;1268;108362;-81
2024/03/29 12:26:54;;;;;;;;;;;;;;;16.05;47.26;99163.34;130684;1259;106593;-82
2024/03/29 12:29:58;;;;;;;;;;;;;;;16.07;47.25;99173.83;130790;1259;107254;-81
2024/03/29 12:33:02;;;;;;;;;;;;;;;16.10;46.80;99181.52;130700;1259;107662;-81
2024/03/29 12:36:07;;;;;;;;;;;;;;;16.13;46.98;99175.79;130716;1259;108611;-81
2024/03/29 12:39:13;;;;;;;;;;;;;;;16.17;46.76;99175.07;130774;1259;107429;-83
2024/03/29 12:42:17;;;;;;;;;;;;;;;16.21;46.69;99170.20;130760;1260;108736;-84
2024/03/29 12:45:21;;;;;;;;;;;;;;;16.23;46.71;99172.30;130725;1268;107725;-83
2024/03/29 12:48:24;;;;;;;;;;;;;;;16.30;47.13;99171.88;130665;1257;107060;-82
2024/03/29 12:51:29;;;;;;;;;;;;;;;16.39;46.83;99176.95;130692;1259;107772;-85
2024/03/29 12:54:33;;;;;;;;;;;;;;;16.46;46.22;99178.55;130863;1259;108904;-82
2024/03/29 12:57:40;;;;;;;;;;;;;;;16.51;46.14;99171.86;130839;1259;108749;-82
2024/03/29 13:00:44;;;;;;;;;;;;;;;16.50;46.17;99167.69;130691;1259;106467;-81
2024/03/29 13:03:48;;;;;;;;;;;;;;;16.52;45.36;99172.80;130757;1254;107589;-80
2024/03/29 13:06:53;;;;;;;;;;;;;;;16.50;45.63;99173.36;130803;1269;107824;-85
2024/03/29 13:09:58;;;;;;;;;;;;;;;16.51;45.20;99176.84;130958;1259;108790;-84
2024/03/29 13:13:02;;;;;;;;;;;;;;;16.56;44.70;99181.35;130809;1259;107627;-83
2024/03/29 13:16:06;;;;;;;;;;;;;;;16.65;45.51;99186.14;130642;1259;106534;-82
2024/03/29 13:19:10;;;;;;;;;;;;;;;16.71;44.72;99185.55;130701;1259;107661;-82
2024/03/29 13:22:14;;;;;;;;;;;;;;;16.70;44.76;99195.54;130733;1267;107506;-83
2024/03/29 13:25:18;;;;;;;;;;;;;;;16.70;44.79;99204.70;130719;1259;107402;-84
2024/03/29 13:28:22;;;;;;;;;;;;;;;16.73;44.85;99204.92;130695;1259;107816;-83
2024/03/29 13:31:43;;;;;;;;;;;;;;;16.81;44.65;99204.54;130669;1259;106789;-83
2024/03/29 13:34:47;;;;;;;;;;;;;;;16.95;44.62;99199.23;130712;1268;107628;-83
2024/03/29 13:37:51;;;;;;;;;;;;;;;17.04;44.14;99189.61;130661;1260;108801;-82
2024/03/29 13:40:56;;;;;;;;;;;;;;;17.15;44.12;99187.27;130722;1257;107862;-81
2024/03/29 13:44:05;;;;;;;;;;;;;;;17.25;44.02;99192.10;130847;1259;107076;-83
2024/03/29 13:47:15;;;;;;;;;;;;;;;17.33;43.85;99198.00;130788;1266;107479;-84
2024/03/29 13:50:20;;;;;;;;;;;;;;;17.39;43.44;99195.48;130808;1258;107274;-84
2024/03/29 13:53:24;;;;;;;;;;;;;;;17.42;43.17;99194.08;130812;1259;108755;-84
2024/03/29 13:56:27;;;;;;;;;;;;;;;17.41;43.53;99187.80;130763;1259;106631;-84
2024/03/29 13:59:31;;;;;;;;;;;;;;;17.43;43.97;99185.86;130846;1258;108717;-84
2024/03/29 14:02:36;;;;;;;;;;;;;;;17.47;43.91;99183.17;131114;1259;107595;-87
2024/03/29 14:05:40;;;;;;;;;;;;;;;17.51;43.74;99182.99;131388;1256;106811;-84
2024/03/29 14:08:46;;;;;;;;;;;;;;;17.53;43.63;99172.77;132100;1256;107955;-83
2024/03/29 14:11:50;;;;;;;;;;;;;;;17.55;43.64;99164.79;130905;1257;106542;-82
2024/03/29 14:14:54;;;;;;;;;;;;;;;17.59;43.93;99171.09;130663;1259;108062;-84
2024/03/29 14:17:58;;;;;;;;;;;;;;;17.62;43.52;99170.00;130579;1259;107718;-81
2024/03/29 14:21:02;;;;;;;;;;;;;;;17.59;43.60;99170.08;130618;1267;108553;-83
2024/03/29 14:24:06;;;;;;;;;;;;;;;17.60;43.99;99170.48;130530;1257;106832;-82
2024/03/29 14:27:10;;;;;;;;;;;;;;;17.61;43.81;99171.89;130632;1268;107781;-82
2024/03/29 14:30:15;;;;;;;;;;;;;;;17.58;43.64;99171.30;130830;1259;106917;-82
2024/03/29 14:33:19;;;;;;;;;;;;;;;17.57;43.82;99169.98;130716;1259;107975;-82
2024/03/29 14:36:30;;;;;;;;;;;;;;;17.55;43.92;99165.12;130959;1258;107356;-82
2024/03/29 14:39:34;;;;;;;;;;;;;;;17.51;43.81;99168.27;130603;1258;108663;-81
2024/03/29 14:42:38;;;;;;;;;;;;;;;17.44;43.92;99159.45;130582;1259;108549;-81
2024/03/29 14:45:43;;;;;;;;;;;;;;;17.37;43.30;99162.41;130545;1260;108356;-81
2024/03/29 14:48:46;;;;;;;;;;;;;;;17.25;43.81;99166.93;130677;1259;106180;-81
2024/03/29 14:51:50;;;;;;;;;;;;;;;17.18;43.70;99162.28;130817;1259;106734;-83
2024/03/29 14:54:54;;;;;;;;;;;;;;;17.09;43.75;99160.24;130626;1259;108094;-82
2024/03/29 14:57:58;;;;;;;;;;;;;;;17.02;43.63;99156.99;130850;1264;106442;-83
2024/03/29 15:01:02;;;;;;;;;;;;;;;16.98;43.73;99157.28;130884;1262;107760;-83
2024/03/29 15:04:06;;;;;;;;;;;;;;;16.97;43.64;99152.48;130867;1269;108082;-82
2024/03/29 15:07:10;;;;;;;;;;;;;;;16.96;43.58;99149.85;130662;1258;106640;-82
2024/03/29 15:10:14;;;;;;;;;;;;;;;16.88;43.55;99153.15;130816;1259;107388;-82
2024/03/29 15:13:18;;;;;;;;;;;;;;;16.81;43.35;99158.75;130797;1261;108773;-82
2024/03/29 15:16:22;;;;;;;;;;;;;;;16.74;43.41;99155.98;130840;1258;108844;-82
2024/03/29 15:19:26;;;;;;;;;;;;;;;16.67;43.29;99153.38;130772;1255;106296;-82
2024/03/29 15:22:30;;;;;;;;;;;;;;;16.61;43.27;99152.67;130751;1260;107275;-82
2024/03/29 15:25:36;;;;;;;;;;;;;;;16.58;43.37;99152.92;130796;1260;107248;-83
2024/03/29 15:32:02;;;;;;;;;;;;;;;16.49;43.27;99147.35;130752;1268;107330;-83
2024/03/29 15:35:06;;;;;;;;;;;;;;;16.44;43.40;99142.88;130726;1267;106866;-82
2024/03/29 15:38:11;;;;;;;;;;;;;;;16.38;43.31;99142.91;130835;1260;107799;-82
2024/03/29 15:41:15;;;;;;;;;;;;;;;16.33;43.25;99138.19;130752;1258;108133;-82
2024/03/29 15:44:20;;;;;;;;;;;;;;;16.27;43.23;99138.06;131373;1253;106966;-82
2024/03/29 15:47:24;;;;;;;;;;;;;;;16.24;43.34;99135.44;130997;1256;106904;-82